createdAt,value
2023-06-04T00:00:27.693Z,99294.84
2023-06-04T00:02:55.823Z,99300.31
2023-06-04T00:05:26.433Z,99296.44
2023-06-04T00:07:55.968Z,99302.25
2023-06-04T00:10:24.074Z,99300.31
2023-06-04T00:12:52.230Z,99299.88
2023-06-04T00:15:20.566Z,99305.78
2023-06-04T00:17:48.638Z,99307.38
2023-06-04T00:20:16.886Z,99316.78
2023-06-04T00:22:45.006Z,99303.56
2023-06-04T00:25:14.763Z,99300.44
2023-06-04T00:27:42.994Z,99300.44
2023-06-04T00:30:12.110Z,99302.03
2023-06-04T00:32:40.756Z,99302.03
2023-06-04T00:35:10.611Z,99303.19
2023-06-04T00:37:38.692Z,99301.63
2023-06-04T00:40:07.994Z,99307.88
2023-06-04T00:42:37.566Z,99310.53
2023-06-04T00:45:06.957Z,99311.31
2023-06-04T00:47:35.086Z,99309.72
2023-06-04T00:50:03.502Z,99312.84
2023-06-04T00:52:31.522Z,99311.16
2023-06-04T00:55:00.564Z,99307.94
2023-06-04T00:57:28.764Z,99302.31
2023-06-04T00:59:58.379Z,99304.56
2023-06-04T01:02:28.816Z,99296.25
2023-06-04T01:05:05.210Z,99298.84
2023-06-04T01:07:33.303Z,99305.03
2023-06-04T01:10:01.551Z,99301.88
2023-06-04T01:12:29.727Z,99297.81
2023-06-04T01:14:59.173Z,99303.56
2023-06-04T01:17:38.720Z,99306.16
2023-06-04T01:20:22.366Z,99295.50
2023-06-04T01:23:05.126Z,99304.78
2023-06-04T01:25:40.105Z,99295.41
2023-06-04T01:28:09.403Z,99308.22
2023-06-04T01:30:44.469Z,99306.22
2023-06-04T01:33:13.979Z,99310.88
2023-06-04T01:35:42.511Z,99316.28
2023-06-04T01:38:11.260Z,99313.38
2023-06-04T01:40:40.007Z,99311.88
2023-06-04T01:43:08.254Z,99309.50
2023-06-04T01:45:36.383Z,99309.13
2023-06-04T01:48:07.388Z,99310.28
2023-06-04T01:50:35.912Z,99311.53
2023-06-04T01:53:04.602Z,99313.09
2023-06-04T01:55:34.786Z,99319.72
2023-06-04T01:58:03.380Z,99318.22
2023-06-04T02:00:31.864Z,99316.28
2023-06-04T02:03:00.866Z,99316.00
2023-06-04T02:05:30.588Z,99312.13
2023-06-04T02:07:58.752Z,99320.75
2023-06-04T02:10:27.134Z,99319.59
2023-06-04T02:12:57.885Z,99325.53
2023-06-04T02:15:27.150Z,99320.94
2023-06-04T02:17:59.679Z,99329.22
2023-06-04T02:20:28.439Z,99327.34
2023-06-04T02:22:58.220Z,99329.75
2023-06-04T02:25:26.449Z,99322.75
2023-06-04T02:27:54.522Z,99325.94
2023-06-04T02:30:22.759Z,99335.28
2023-06-04T02:32:52.637Z,99330.59
2023-06-04T02:35:22.375Z,99343.81
2023-06-04T02:37:50.723Z,99336.00
2023-06-04T02:40:20.221Z,99340.69
2023-06-04T02:42:48.236Z,99338.28
2023-06-04T02:45:16.320Z,99332.75
2023-06-04T02:47:44.553Z,99344.81
2023-06-04T02:50:14.163Z,99341.66
2023-06-04T02:52:44.185Z,99344.38
2023-06-04T02:55:13.920Z,99338.09
2023-06-04T02:57:44.616Z,99340.44
2023-06-04T03:00:14.663Z,99336.34
2023-06-04T03:02:44.714Z,99333.09
2023-06-04T03:05:14.816Z,99336.88
2023-06-04T03:07:46.053Z,99342.28
2023-06-04T03:10:15.634Z,99348.16
2023-06-04T03:12:45.308Z,99343.84
2023-06-04T03:15:14.144Z,99339.16
2023-06-04T03:17:43.563Z,99343.50
2023-06-04T03:20:12.308Z,99348.59
2023-06-04T03:22:40.546Z,99350.19
2023-06-04T03:25:09.210Z,99353.34
2023-06-04T03:27:37.675Z,99355.22
2023-06-04T03:30:08.857Z,99354.75
2023-06-04T03:32:37.996Z,99357.88
2023-06-04T03:35:06.906Z,99362.44
2023-06-04T03:37:35.032Z,99354.16
2023-06-04T03:40:07.315Z,99361.13
2023-06-04T03:42:35.569Z,99359.53
2023-06-04T03:45:03.807Z,99358.72
2023-06-04T03:47:33.398Z,99356.34
2023-06-04T03:50:01.570Z,99361.44
2023-06-04T03:52:29.627Z,99364.19
2023-06-04T03:54:57.738Z,99365.41
2023-06-04T03:57:25.888Z,99362.34
2023-06-04T03:59:55.043Z,99362.44
2023-06-04T04:02:23.191Z,99365.69
2023-06-04T04:04:55.413Z,99356.34
2023-06-04T04:07:23.921Z,99361.97
2023-06-04T04:09:51.933Z,99379.00
2023-06-04T04:12:20.306Z,99366.38
2023-06-04T04:14:48.999Z,99366.00
2023-06-04T04:17:17.326Z,99368.78
2023-06-04T04:19:45.469Z,99366.06
2023-06-04T04:22:18.523Z,99372.69
2023-06-04T04:24:46.678Z,99374.59
2023-06-04T04:27:16.828Z,99374.03
2023-06-04T04:29:48.755Z,99376.09
2023-06-04T04:32:17.956Z,99378.16
2023-06-04T04:34:53.701Z,99375.84
2023-06-04T04:37:23.617Z,99378.53
2023-06-04T04:39:53.195Z,99372.56
2023-06-04T04:42:21.464Z,99377.94
2023-06-04T04:44:50.203Z,99375.53
2023-06-04T04:47:18.638Z,99373.53
2023-06-04T04:49:49.537Z,99383.28
2023-06-04T04:52:18.650Z,99377.16
2023-06-04T04:54:48.119Z,99379.59
2023-06-04T04:57:16.378Z,99380.16
2023-06-04T04:59:44.433Z,99371.81
2023-06-04T05:02:12.784Z,99370.06
2023-06-04T05:04:40.985Z,99378.91
2023-06-04T05:07:09.271Z,99382.31
2023-06-04T05:09:37.465Z,99387.31
2023-06-04T05:12:07.882Z,99382.00
2023-06-04T05:14:36.791Z,99376.66
2023-06-04T05:17:05.614Z,99377.53
2023-06-04T05:19:34.046Z,99379.66
2023-06-04T05:22:02.829Z,99388.84
2023-06-04T05:24:31.074Z,99385.84
2023-06-04T05:26:59.188Z,99388.47
2023-06-04T05:29:28.794Z,99384.00
2023-06-04T05:31:57.298Z,99394.88
2023-06-04T05:34:25.391Z,99397.19
2023-06-04T05:36:53.911Z,99397.44
2023-06-04T05:39:25.062Z,99403.19
2023-06-04T05:41:53.284Z,99401.75
2023-06-04T05:44:21.386Z,99406.19
2023-06-04T05:46:51.413Z,99404.28
2023-06-04T05:49:20.834Z,99403.56
2023-06-04T05:51:49.033Z,99409.50
2023-06-04T05:54:17.284Z,99415.47
2023-06-04T05:56:45.385Z,99402.94
2023-06-04T05:59:13.444Z,99414.81
2023-06-04T06:01:41.530Z,99406.97
2023-06-04T06:04:11.777Z,99406.97
2023-06-04T06:06:40.251Z,99415.22
2023-06-04T06:09:10.069Z,99411.66
2023-06-04T06:11:38.192Z,99417.94
2023-06-04T06:14:06.333Z,99417.47
2023-06-04T06:16:34.656Z,99421.72
2023-06-04T06:19:03.295Z,99418.09
2023-06-04T06:21:32.742Z,99423.97
2023-06-04T06:24:01.368Z,99421.97
2023-06-04T06:26:30.005Z,99426.28
2023-06-04T06:28:58.534Z,99426.28
2023-06-04T06:31:27.323Z,99410.63
2023-06-04T06:33:55.569Z,99424.03
2023-06-04T06:36:23.945Z,99420.16
2023-06-04T06:38:53.534Z,99419.00
2023-06-04T06:41:22.061Z,99411.13
2023-06-04T06:43:50.289Z,99410.78
2023-06-04T06:46:18.576Z,99405.25
2023-06-04T06:48:46.835Z,99406.84
2023-06-04T06:51:15.125Z,99404.47
2023-06-04T06:53:44.185Z,99408.47
2023-06-04T06:56:13.756Z,99415.59
2023-06-04T06:58:41.905Z,99412.53
2023-06-04T07:01:10.300Z,99411.38
2023-06-04T07:03:39.823Z,99415.72
2023-06-04T07:06:08.440Z,99414.91
2023-06-04T07:08:36.657Z,99421.19
2023-06-04T07:11:05.771Z,99420.78
2023-06-04T07:13:36.389Z,99427.44
2023-06-04T07:16:04.901Z,99420.66
2023-06-04T07:18:33.604Z,99419.81
2023-06-04T07:21:01.739Z,99420.97
2023-06-04T07:23:30.045Z,99417.84
2023-06-04T07:25:58.547Z,99416.59
2023-06-04T07:28:26.635Z,99418.56
2023-06-04T07:30:56.074Z,99418.91
2023-06-04T07:33:24.265Z,99423.91
2023-06-04T07:35:52.586Z,99428.56
2023-06-04T07:38:21.343Z,99425.41
2023-06-04T07:40:49.947Z,99427.69
2023-06-04T07:43:17.987Z,99427.13
2023-06-04T07:45:46.229Z,99430.88
2023-06-04T07:48:15.708Z,99432.28
2023-06-04T07:50:43.856Z,99433.25
2023-06-04T07:53:12.062Z,99425.56
2023-06-04T07:55:40.108Z,99431.78
2023-06-04T07:58:08.213Z,99430.88
2023-06-04T08:00:36.505Z,99440.16
2023-06-04T08:03:04.745Z,99427.75
2023-06-04T08:05:34.999Z,99427.00
2023-06-04T08:08:04.612Z,99431.47
2023-06-04T08:10:32.799Z,99438.63
2023-06-04T08:13:00.855Z,99431.88
2023-06-04T08:15:28.925Z,99429.19
2023-06-04T08:17:57.367Z,99428.97
2023-06-04T08:20:27.537Z,99434.00
2023-06-04T08:22:57.115Z,99436.59
2023-06-04T08:25:25.257Z,99435.53
2023-06-04T08:27:53.357Z,99436.16
2023-06-04T08:30:21.682Z,99430.69
2023-06-04T08:32:49.847Z,99428.59
2023-06-04T08:35:18.183Z,99427.06
2023-06-04T08:37:46.234Z,99430.25
2023-06-04T08:40:15.839Z,99426.59
2023-06-04T08:42:46.108Z,99426.69
2023-06-04T08:45:16.481Z,99422.88
2023-06-04T08:47:46.850Z,99423.81
2023-06-04T08:50:18.870Z,99425.13
2023-06-04T08:52:47.124Z,99421.28
2023-06-04T08:55:16.753Z,99421.69
2023-06-04T08:57:45.658Z,99421.34
2023-06-04T09:00:14.811Z,99419.28
2023-06-04T09:02:43.367Z,99413.28
2023-06-04T09:05:13.629Z,99416.81
2023-06-04T09:07:43.270Z,99410.88
2023-06-04T09:10:15.035Z,99400.56
2023-06-04T09:12:45.844Z,99406.38
2023-06-04T09:15:13.902Z,99403.94
2023-06-04T09:17:42.075Z,99409.00
2023-06-04T09:20:20.806Z,99396.72
2023-06-04T09:22:48.967Z,99404.16
2023-06-04T09:25:26.390Z,99393.53
2023-06-04T09:28:08.249Z,99392.69
2023-06-04T09:30:36.455Z,99394.06
2023-06-04T09:33:09.555Z,99391.03
2023-06-04T09:35:37.886Z,99390.84
2023-06-04T09:38:07.538Z,99386.22
2023-06-04T09:40:39.416Z,99389.22
2023-06-04T09:43:09.213Z,99394.59
2023-06-04T09:45:37.692Z,99385.97
2023-06-04T09:48:09.957Z,99393.44
2023-06-04T09:50:40.423Z,99380.94
2023-06-04T09:53:16.670Z,99380.63
2023-06-04T09:55:44.996Z,99378.69
2023-06-04T09:58:15.356Z,99380.50
2023-06-04T10:00:47.043Z,99382.72
2023-06-04T10:03:17.796Z,99378.31
2023-06-04T10:05:46.485Z,99379.53
2023-06-04T10:08:19.583Z,99374.72
2023-06-04T10:10:51.738Z,99373.38
2023-06-04T10:13:21.849Z,99375.22
2023-06-04T10:15:51.012Z,99365.50
2023-06-04T10:18:19.782Z,99366.38
2023-06-04T10:20:48.522Z,99365.03
2023-06-04T10:23:18.922Z,99365.81
2023-06-04T10:25:48.771Z,99360.91
2023-06-04T10:28:18.113Z,99359.91
2023-06-04T10:30:47.827Z,99360.50
2023-06-04T10:33:19.312Z,99355.88
2023-06-04T10:35:47.894Z,99350.63
2023-06-04T10:38:17.814Z,99346.91
2023-06-04T10:40:46.045Z,99348.47
2023-06-04T10:43:17.166Z,99345.25
2023-06-04T10:45:45.441Z,99351.31
2023-06-04T10:48:15.660Z,99345.59
2023-06-04T10:50:56.295Z,99343.34
2023-06-04T10:53:24.718Z,99346.28
2023-06-04T10:55:52.832Z,99345.00
2023-06-04T10:58:21.831Z,99344.38
2023-06-04T11:00:51.590Z,99340.19
2023-06-04T11:03:22.380Z,99343.69
2023-06-04T11:05:51.749Z,99345.94
2023-06-04T11:09:25.240Z,99350.00
2023-06-04T11:11:59.496Z,99340.28
2023-06-04T11:14:27.648Z,99348.97
2023-06-04T11:16:56.009Z,99337.59
2023-06-04T11:19:25.776Z,99343.78
2023-06-04T11:21:53.850Z,99338.94
2023-06-04T11:24:21.972Z,99348.13
2023-06-04T11:27:00.239Z,99342.81
2023-06-04T11:29:37.128Z,99344.03
2023-06-04T11:32:05.772Z,99338.34
2023-06-04T11:34:35.368Z,99343.34
2023-06-04T11:37:10.525Z,99345.59
2023-06-04T11:39:40.789Z,99344.63
2023-06-04T11:42:09.690Z,99329.97
2023-06-04T11:44:38.126Z,99333.00
2023-06-04T11:47:08.907Z,99338.47
2023-06-04T11:49:39.074Z,99335.22
2023-06-04T11:52:07.927Z,99331.75
2023-06-04T11:54:39.572Z,99334.44
2023-06-04T11:57:08.215Z,99343.28
2023-06-04T11:59:37.157Z,99334.44
2023-06-04T12:02:05.847Z,99332.69
2023-06-04T12:04:34.014Z,99326.69
2023-06-04T12:07:07.310Z,99331.63
2023-06-04T12:09:37.323Z,99328.84
2023-06-04T12:12:06.907Z,99331.94
2023-06-04T12:14:35.242Z,99321.59
2023-06-04T12:17:04.775Z,99321.03
2023-06-04T12:19:32.924Z,99324.97
2023-06-04T12:22:04.085Z,99315.16
2023-06-04T12:24:32.453Z,99309.56
2023-06-04T12:27:05.437Z,99313.34
2023-06-04T12:29:33.957Z,99313.44
2023-06-04T12:32:11.950Z,99300.25
2023-06-04T12:34:41.981Z,99315.66
2023-06-04T12:37:11.475Z,99311.56
2023-06-04T12:39:39.640Z,99308.75
2023-06-04T12:42:09.500Z,99306.56
2023-06-04T12:44:38.414Z,99303.63
2023-06-04T12:47:09.904Z,99295.84
2023-06-04T12:49:38.249Z,99301.47
2023-06-04T12:52:07.087Z,99296.09
2023-06-04T12:54:36.614Z,99300.31
2023-06-04T12:57:04.897Z,99300.16
2023-06-04T12:59:32.974Z,99306.13
2023-06-04T13:02:01.201Z,99314.75
2023-06-04T13:04:29.439Z,99306.97
2023-06-04T13:07:00.507Z,99305.00
2023-06-04T13:09:29.623Z,99309.56
2023-06-04T13:11:59.454Z,99311.44
2023-06-04T13:14:27.686Z,99324.50
2023-06-04T13:16:55.974Z,99321.22
2023-06-04T13:19:27.688Z,99328.22
2023-06-04T13:21:56.133Z,99318.44
2023-06-04T13:24:24.320Z,99327.00
2023-06-04T13:26:52.304Z,99326.97
2023-06-04T13:29:23.416Z,99330.09
2023-06-04T13:31:51.667Z,99335.81
2023-06-04T13:34:27.571Z,99324.50
2023-06-04T13:36:57.244Z,99326.31
2023-06-04T13:39:25.317Z,99325.63
2023-06-04T13:41:53.320Z,99316.97
2023-06-04T13:44:27.273Z,99319.63
2023-06-04T13:46:55.523Z,99321.53
2023-06-04T13:49:23.567Z,99319.38
2023-06-04T13:51:51.613Z,99320.00
2023-06-04T13:54:19.569Z,99313.63
2023-06-04T13:56:48.459Z,99308.19
2023-06-04T13:59:16.556Z,99302.31
2023-06-04T14:01:46.036Z,99303.91
2023-06-04T14:04:14.133Z,99305.19
2023-06-04T14:06:42.285Z,99303.91
2023-06-04T14:09:10.626Z,99298.50
2023-06-04T14:11:40.882Z,99294.09
2023-06-04T14:14:09.092Z,99292.00
2023-06-04T14:16:37.201Z,99281.81
2023-06-04T14:19:06.867Z,99278.34
2023-06-04T14:21:35.034Z,99269.03
2023-06-04T14:24:03.112Z,99276.09
2023-06-04T14:26:31.557Z,99280.44
2023-06-04T14:28:59.831Z,99268.47
2023-06-04T14:31:27.961Z,99263.03
2023-06-04T14:33:56.647Z,99266.81
2023-06-04T14:36:26.263Z,99262.13
2023-06-04T14:38:54.446Z,99263.53
2023-06-04T14:41:22.778Z,99258.66
2023-06-04T14:43:50.900Z,99279.13
2023-06-04T14:46:19.216Z,99262.47
2023-06-04T14:48:47.429Z,99276.66
2023-06-04T14:51:15.750Z,99280.00
2023-06-04T14:53:45.516Z,99276.66
2023-06-04T14:56:13.787Z,99283.81
2023-06-04T14:58:41.842Z,99292.16
2023-06-04T15:01:11.529Z,99287.22
2023-06-04T15:03:41.339Z,99292.53
2023-06-04T15:06:18.843Z,99277.63
2023-06-04T15:08:49.771Z,99277.59
2023-06-04T15:11:17.850Z,99269.63
2023-06-04T15:13:46.103Z,99269.53
2023-06-04T15:16:14.335Z,99270.22
2023-06-04T15:18:42.658Z,99265.81
2023-06-04T15:21:11.048Z,99270.16
2023-06-04T15:23:39.385Z,99259.94
2023-06-04T15:26:09.126Z,99257.88
2023-06-04T15:28:37.328Z,99241.63
2023-06-04T15:31:05.463Z,99243.59
2023-06-04T15:33:33.703Z,99236.72
2023-06-04T15:36:01.803Z,99239.41
2023-06-04T15:38:31.824Z,99237.38
2023-06-04T15:41:00.272Z,99237.25
2023-06-04T15:43:29.909Z,99241.28
2023-06-04T15:45:58.025Z,99237.81
2023-06-04T15:48:28.643Z,99236.13
2023-06-04T15:50:57.058Z,99241.38
2023-06-04T15:53:25.152Z,99224.00
2023-06-04T15:55:53.299Z,99235.56
2023-06-04T15:58:21.345Z,99223.59
2023-06-04T16:00:50.784Z,99220.78
2023-06-04T16:03:18.915Z,99225.59
2023-06-04T16:05:47.059Z,99217.25
2023-06-04T16:08:15.527Z,99216.56
2023-06-04T16:10:45.902Z,99228.72
2023-06-04T16:13:14.504Z,99224.81
2023-06-04T16:15:43.153Z,99225.88
2023-06-04T16:18:12.636Z,99228.38
2023-06-04T16:20:40.860Z,99219.41
2023-06-04T16:23:08.999Z,99226.59
2023-06-04T16:25:37.542Z,99225.44
2023-06-04T16:28:06.752Z,99224.06
2023-06-04T16:30:34.970Z,99230.78
2023-06-04T16:33:03.206Z,99229.66
2023-06-04T16:35:33.102Z,99225.19
2023-06-04T16:38:01.675Z,99227.59
2023-06-04T16:40:29.848Z,99233.25
2023-06-04T16:42:58.202Z,99231.50
2023-06-04T16:45:26.353Z,99234.81
2023-06-04T16:47:54.691Z,99226.25
2023-06-04T16:50:22.991Z,99233.16
2023-06-04T16:52:52.622Z,99235.69
2023-06-04T16:55:20.976Z,99234.47
2023-06-04T16:57:49.126Z,99234.31
2023-06-04T17:00:25.794Z,99238.09
2023-06-04T17:02:58.096Z,99245.34
2023-06-04T17:05:26.687Z,99243.16
2023-06-04T17:07:56.334Z,99238.78
2023-06-04T17:10:29.794Z,99248.94
2023-06-04T17:12:57.799Z,99253.34
2023-06-04T17:15:25.953Z,99254.28
2023-06-04T17:17:55.824Z,99243.22
2023-06-04T17:20:23.986Z,99241.28
2023-06-04T17:22:52.072Z,99239.69
2023-06-04T17:25:21.571Z,99240.19
2023-06-04T17:27:52.034Z,99241.00
2023-06-04T17:30:21.050Z,99242.63
2023-06-04T17:32:49.446Z,99240.59
2023-06-04T17:35:18.946Z,99239.56
2023-06-04T17:37:47.005Z,99233.81
2023-06-04T17:40:15.068Z,99238.69
2023-06-04T17:42:47.682Z,99242.66
2023-06-04T17:45:16.292Z,99248.88
2023-06-04T17:47:44.455Z,99242.66
2023-06-04T17:50:12.864Z,99243.41
2023-06-04T17:52:41.023Z,99253.13
2023-06-04T17:55:10.207Z,99247.41
2023-06-04T17:57:38.331Z,99248.38
2023-06-04T18:00:09.477Z,99244.16
2023-06-04T18:02:37.605Z,99249.00
2023-06-04T18:05:06.197Z,99251.44
2023-06-04T18:07:34.289Z,99250.38
2023-06-04T18:10:02.503Z,99263.47
2023-06-04T18:12:31.922Z,99267.47
2023-06-04T18:15:01.339Z,99269.19
2023-06-04T18:17:30.865Z,99271.59
2023-06-04T18:19:59.054Z,99282.63
2023-06-04T18:22:27.080Z,99283.81
2023-06-04T18:24:55.134Z,99287.34
2023-06-04T18:27:23.669Z,99292.88
2023-06-04T18:29:51.884Z,99282.63
2023-06-04T18:32:20.359Z,99295.97
2023-06-04T18:34:49.790Z,99297.13
2023-06-04T18:37:17.820Z,99301.44
2023-06-04T18:39:45.935Z,99302.19
2023-06-04T18:42:25.779Z,99302.97
2023-06-04T18:44:58.698Z,99312.34
2023-06-04T18:47:27.096Z,99315.06
2023-06-04T18:49:57.459Z,99320.97
2023-06-04T18:52:25.749Z,99328.78
2023-06-04T18:54:53.862Z,99323.63
2023-06-04T18:57:21.947Z,99338.91
2023-06-04T18:59:50.185Z,99329.84
2023-06-04T19:02:18.293Z,99338.06
2023-06-04T19:04:47.408Z,99341.53
2023-06-04T19:07:16.905Z,99329.34
2023-06-04T19:09:45.307Z,99340.31
2023-06-04T19:12:13.451Z,99348.13
2023-06-04T19:14:41.626Z,99345.66
2023-06-04T19:17:09.692Z,99347.50
2023-06-04T19:19:37.796Z,99344.19
2023-06-04T19:22:06.453Z,99348.38
2023-06-04T19:24:36.319Z,99352.19
2023-06-04T19:27:04.822Z,99357.63
2023-06-04T19:29:32.950Z,99355.56
2023-06-04T19:32:01.543Z,99360.22
2023-06-04T19:34:29.918Z,99362.00
2023-06-04T19:36:57.999Z,99360.28
2023-06-04T19:39:26.222Z,99366.06
2023-06-04T19:41:56.116Z,99361.63
2023-06-04T19:44:24.210Z,99352.94
2023-06-04T19:46:52.292Z,99356.38
2023-06-04T19:49:20.917Z,99365.31
2023-06-04T19:51:49.288Z,99375.41
2023-06-04T19:54:17.427Z,99363.56
2023-06-04T19:56:45.707Z,99366.91
2023-06-04T19:59:15.208Z,99367.53
2023-06-04T20:01:44.081Z,99369.78
2023-06-04T20:04:12.381Z,99370.53
2023-06-04T20:06:40.646Z,99377.19
2023-06-04T20:09:09.518Z,99381.78
2023-06-04T20:11:37.713Z,99384.50
2023-06-04T20:14:06.797Z,99383.63
2023-06-04T20:16:36.357Z,99380.38
2023-06-04T20:19:04.602Z,99376.75
2023-06-04T20:21:34.102Z,99380.13
2023-06-04T20:24:03.910Z,99376.56
2023-06-04T20:26:33.968Z,99372.16
2023-06-04T20:29:02.596Z,99381.13
2023-06-04T20:31:30.814Z,99371.31
2023-06-04T20:34:00.708Z,99381.84
2023-06-04T20:36:28.895Z,99384.16
2023-06-04T20:38:57.407Z,99382.56
2023-06-04T20:41:25.587Z,99389.56
2023-06-04T20:43:54.544Z,99390.25
2023-06-04T20:46:23.614Z,99396.34
2023-06-04T20:48:52.158Z,99397.81
2023-06-04T20:51:22.468Z,99400.03
2023-06-04T20:53:51.862Z,99397.69
2023-06-04T20:56:20.006Z,99403.94
2023-06-04T20:58:49.921Z,99392.94
2023-06-04T21:01:18.076Z,99392.06
2023-06-04T21:03:47.142Z,99392.34
2023-06-04T21:06:15.761Z,99396.63
2023-06-04T21:08:45.284Z,99392.56
2023-06-04T21:11:13.406Z,99392.88
2023-06-04T21:13:41.409Z,99396.31
2023-06-04T21:16:09.572Z,99400.19
2023-06-04T21:18:37.827Z,99399.31
2023-06-04T21:21:06.118Z,99400.75
2023-06-04T21:23:34.322Z,99405.69
2023-06-04T21:26:03.736Z,99390.84
2023-06-04T21:28:32.006Z,99400.88
2023-06-04T21:31:00.090Z,99394.91
2023-06-04T21:33:28.857Z,99406.13
2023-06-04T21:35:56.942Z,99406.41
2023-06-04T21:38:24.988Z,99407.22
2023-06-04T21:40:53.141Z,99397.78
2023-06-04T21:43:22.666Z,99401.63
2023-06-04T21:45:51.308Z,99392.25
2023-06-04T21:48:19.436Z,99401.56
2023-06-04T21:50:47.609Z,99399.56
2023-06-04T21:53:15.890Z,99401.44
2023-06-04T21:55:44.088Z,99396.22
2023-06-04T21:58:12.412Z,99402.75
2023-06-04T22:00:41.989Z,99411.22
2023-06-04T22:03:10.163Z,99414.25
2023-06-04T22:05:38.711Z,99408.59
2023-06-04T22:08:06.982Z,99408.06
2023-06-04T22:10:35.203Z,99413.78
2023-06-04T22:13:03.328Z,99410.97
2023-06-04T22:15:31.497Z,99398.78
2023-06-04T22:18:01.224Z,99413.59
2023-06-04T22:20:29.363Z,99416.66
2023-06-04T22:22:57.424Z,99413.53
2023-06-04T22:25:25.491Z,99420.47
2023-06-04T22:27:53.578Z,99416.50
2023-06-04T22:30:21.621Z,99418.78
2023-06-04T22:32:49.841Z,99414.03
2023-06-04T22:35:19.908Z,99414.66
2023-06-04T22:37:48.041Z,99422.31
2023-06-04T22:40:16.157Z,99419.06
2023-06-04T22:42:44.202Z,99419.38
2023-06-04T22:45:12.737Z,99418.16
2023-06-04T22:47:40.926Z,99410.66
2023-06-04T22:50:09.707Z,99407.59
2023-06-04T22:52:41.104Z,99404.06
2023-06-04T22:55:10.313Z,99405.66
2023-06-04T22:57:39.148Z,99409.50
2023-06-04T23:00:09.148Z,99407.94
2023-06-04T23:02:37.362Z,99399.31
2023-06-04T23:05:06.138Z,99401.94
2023-06-04T23:07:34.661Z,99404.50
2023-06-04T23:10:05.798Z,99413.72
2023-06-04T23:12:33.965Z,99404.31
2023-06-04T23:15:02.072Z,99403.41
2023-06-04T23:17:30.146Z,99406.56
2023-06-04T23:19:58.215Z,99403.63
2023-06-04T23:22:26.508Z,99407.03
2023-06-04T23:24:54.840Z,99398.41
2023-06-04T23:27:24.330Z,99406.16
2023-06-04T23:29:52.492Z,99405.69
2023-06-04T23:32:20.677Z,99404.47
2023-06-04T23:34:48.988Z,99407.19
2023-06-04T23:37:17.028Z,99396.97
2023-06-04T23:39:45.432Z,99405.03
2023-06-04T23:42:13.586Z,99403.34
2023-06-04T23:44:43.062Z,99406.06
2023-06-04T23:47:11.134Z,99405.25
2023-06-04T23:49:39.314Z,99405.72
2023-06-04T23:52:07.887Z,99409.25
2023-06-04T23:54:35.937Z,99410.72
2023-06-04T23:57:04.121Z,99411.41
2023-06-04T23:59:32.276Z,99410.50
